sensor_id;sensor_type;location;lat;lon;timestamp;P1;durP1;ratioP1;P2;durP2;ratioP2
30020;SDS011;16861;52.294;7.760;2023-11-19T00:00:10;8.65;;;7.85;;
30020;SDS011;16861;52.294;7.760;2023-11-19T00:02:46;8.15;;;7.45;;
30020;SDS011;16861;52.294;7.760;2023-11-19T00:05:23;7.00;;;6.40;;
30020;SDS011;16861;52.294;7.760;2023-11-19T00:10:20;6.55;;;5.90;;
30020;SDS011;16861;52.294;7.760;2023-11-19T00:12:48;6.78;;;6.15;;
30020;SDS011;16861;52.294;7.760;2023-11-19T00:15:16;7.68;;;6.97;;
30020;SDS011;16861;52.294;7.760;2023-11-19T00:17:46;8.23;;;7.43;;
30020;SDS011;16861;52.294;7.760;2023-11-19T00:20:16;8.35;;;7.65;;
30020;SDS011;16861;52.294;7.760;2023-11-19T00:22:43;8.57;;;7.85;;
30020;SDS011;16861;52.294;7.760;2023-11-19T00:25:16;8.65;;;7.85;;
30020;SDS011;16861;52.294;7.760;2023-11-19T00:27:43;7.90;;;7.20;;
30020;SDS011;16861;52.294;7.760;2023-11-19T00:30:13;8.65;;;7.30;;
30020;SDS011;16861;52.294;7.760;2023-11-19T00:32:41;9.02;;;7.20;;
30020;SDS011;16861;52.294;7.760;2023-11-19T00:35:08;8.85;;;8.02;;
30020;SDS011;16861;52.294;7.760;2023-11-19T00:37:36;7.75;;;7.05;;
30020;SDS011;16861;52.294;7.760;2023-11-19T00:40:03;8.32;;;7.63;;
30020;SDS011;16861;52.294;7.760;2023-11-19T00:42:32;7.75;;;7.05;;
30020;SDS011;16861;52.294;7.760;2023-11-19T00:44:58;8.07;;;7.38;;
30020;SDS011;16861;52.294;7.760;2023-11-19T00:47:25;8.80;;;8.00;;
30020;SDS011;16861;52.294;7.760;2023-11-19T00:49:52;9.35;;;8.45;;
30020;SDS011;16861;52.294;7.760;2023-11-19T00:52:18;9.65;;;8.75;;
30020;SDS011;16861;52.294;7.760;2023-11-19T00:54:45;9.93;;;8.73;;
30020;SDS011;16861;52.294;7.760;2023-11-19T00:57:12;9.13;;;8.23;;
30020;SDS011;16861;52.294;7.760;2023-11-19T00:59:41;9.93;;;8.93;;
30020;SDS011;16861;52.294;7.760;2023-11-19T01:02:08;9.38;;;8.48;;
30020;SDS011;16861;52.294;7.760;2023-11-19T01:04:35;9.60;;;8.70;;
30020;SDS011;16861;52.294;7.760;2023-11-19T01:07:02;9.80;;;8.90;;
30020;SDS011;16861;52.294;7.760;2023-11-19T01:09:32;9.85;;;8.85;;
30020;SDS011;16861;52.294;7.760;2023-11-19T01:12:01;9.82;;;8.90;;
30020;SDS011;16861;52.294;7.760;2023-11-19T01:14:28;11.38;;;10.18;;
30020;SDS011;16861;52.294;7.760;2023-11-19T01:16:55;10.30;;;9.30;;
30020;SDS011;16861;52.294;7.760;2023-11-19T01:19:22;10.98;;;9.90;;
30020;SDS011;16861;52.294;7.760;2023-11-19T01:21:50;12.15;;;10.95;;
30020;SDS011;16861;52.294;7.760;2023-11-19T01:24:17;11.30;;;10.20;;
30020;SDS011;16861;52.294;7.760;2023-11-19T01:26:44;11.80;;;10.60;;
30020;SDS011;16861;52.294;7.760;2023-11-19T01:29:12;12.52;;;11.23;;
30020;SDS011;16861;52.294;7.760;2023-11-19T01:31:42;12.07;;;10.88;;
30020;SDS011;16861;52.294;7.760;2023-11-19T01:34:09;12.45;;;11.15;;
30020;SDS011;16861;52.294;7.760;2023-11-19T01:36:38;14.35;;;12.95;;
30020;SDS011;16861;52.294;7.760;2023-11-19T01:39:05;16.55;;;13.32;;
30020;SDS011;16861;52.294;7.760;2023-11-19T01:41:35;14.57;;;13.07;;
30020;SDS011;16861;52.294;7.760;2023-11-19T01:44:03;14.80;;;12.90;;
30020;SDS011;16861;52.294;7.760;2023-11-19T01:46:30;15.85;;;14.15;;
30020;SDS011;16861;52.294;7.760;2023-11-19T01:48:59;16.15;;;14.45;;
30020;SDS011;16861;52.294;7.760;2023-11-19T01:51:26;15.30;;;13.77;;
30020;SDS011;16861;52.294;7.760;2023-11-19T01:53:53;16.20;;;14.50;;
30020;SDS011;16861;52.294;7.760;2023-11-19T01:56:23;17.83;;;15.60;;
30020;SDS011;16861;52.294;7.760;2023-11-19T01:58:51;17.73;;;15.60;;
30020;SDS011;16861;52.294;7.760;2023-11-19T02:01:20;16.98;;;15.27;;
30020;SDS011;16861;52.294;7.760;2023-11-19T02:03:47;18.20;;;16.33;;
30020;SDS011;16861;52.294;7.760;2023-11-19T02:06:14;19.90;;;16.20;;
30020;SDS011;16861;52.294;7.760;2023-11-19T02:08:42;19.15;;;16.48;;
30020;SDS011;16861;52.294;7.760;2023-11-19T02:11:09;17.25;;;15.43;;
30020;SDS011;16861;52.294;7.760;2023-11-19T02:13:38;17.98;;;15.85;;
30020;SDS011;16861;52.294;7.760;2023-11-19T02:16:06;18.65;;;16.65;;
30020;SDS011;16861;52.294;7.760;2023-11-19T02:18:33;18.35;;;16.23;;
30020;SDS011;16861;52.294;7.760;2023-11-19T02:21:00;19.08;;;15.57;;
30020;SDS011;16861;52.294;7.760;2023-11-19T02:23:26;18.85;;;16.63;;
30020;SDS011;16861;52.294;7.760;2023-11-19T02:28:43;18.40;;;16.00;;
30020;SDS011;16861;52.294;7.760;2023-11-19T02:31:10;19.30;;;15.60;;
30020;SDS011;16861;52.294;7.760;2023-11-19T02:33:38;18.98;;;15.98;;
30020;SDS011;16861;52.294;7.760;2023-11-19T02:36:06;19.77;;;16.83;;
30020;SDS011;16861;52.294;7.760;2023-11-19T02:38:34;23.45;;;15.98;;
30020;SDS011;16861;52.294;7.760;2023-11-19T02:41:05;18.10;;;16.05;;
30020;SDS011;16861;52.294;7.760;2023-11-19T02:43:33;16.75;;;14.27;;
30020;SDS011;16861;52.294;7.760;2023-11-19T02:46:01;22.40;;;16.08;;
30020;SDS011;16861;52.294;7.760;2023-11-19T02:48:41;19.83;;;15.73;;
30020;SDS011;16861;52.294;7.760;2023-11-19T02:51:09;21.30;;;15.15;;
30020;SDS011;16861;52.294;7.760;2023-11-19T02:53:36;20.92;;;14.35;;
30020;SDS011;16861;52.294;7.760;2023-11-19T02:56:04;19.67;;;13.40;;
30020;SDS011;16861;52.294;7.760;2023-11-19T02:58:52;20.25;;;14.07;;
30020;SDS011;16861;52.294;7.760;2023-11-19T03:01:23;21.70;;;14.70;;
30020;SDS011;16861;52.294;7.760;2023-11-19T03:03:57;20.48;;;13.02;;
30020;SDS011;16861;52.294;7.760;2023-11-19T03:06:25;19.27;;;13.55;;
30020;SDS011;16861;52.294;7.760;2023-11-19T03:08:51;23.75;;;13.25;;
30020;SDS011;16861;52.294;7.760;2023-11-19T03:11:18;22.10;;;12.63;;
30020;SDS011;16861;52.294;7.760;2023-11-19T03:13:45;17.85;;;11.90;;
30020;SDS011;16861;52.294;7.760;2023-11-19T03:16:13;19.27;;;11.40;;
30020;SDS011;16861;52.294;7.760;2023-11-19T03:18:41;16.30;;;11.45;;
30020;SDS011;16861;52.294;7.760;2023-11-19T03:21:07;16.70;;;11.35;;
30020;SDS011;16861;52.294;7.760;2023-11-19T03:23:34;17.48;;;11.82;;
30020;SDS011;16861;52.294;7.760;2023-11-19T03:26:01;20.23;;;10.48;;
30020;SDS011;16861;52.294;7.760;2023-11-19T03:28:32;13.68;;;9.93;;
30020;SDS011;16861;52.294;7.760;2023-11-19T03:30:59;16.42;;;10.05;;
30020;SDS011;16861;52.294;7.760;2023-11-19T03:33:26;15.10;;;9.50;;
30020;SDS011;16861;52.294;7.760;2023-11-19T03:35:54;17.20;;;9.40;;
30020;SDS011;16861;52.294;7.760;2023-11-19T03:38:23;20.08;;;9.38;;
30020;SDS011;16861;52.294;7.760;2023-11-19T03:40:51;13.25;;;8.50;;
30020;SDS011;16861;52.294;7.760;2023-11-19T03:43:18;20.98;;;8.93;;
30020;SDS011;16861;52.294;7.760;2023-11-19T03:45:46;17.27;;;8.18;;
30020;SDS011;16861;52.294;7.760;2023-11-19T03:48:13;15.00;;;8.45;;
30020;SDS011;16861;52.294;7.760;2023-11-19T03:50:42;13.77;;;7.30;;
30020;SDS011;16861;52.294;7.760;2023-11-19T03:53:09;17.42;;;8.07;;
30020;SDS011;16861;52.294;7.760;2023-11-19T03:55:35;20.88;;;7.97;;
30020;SDS011;16861;52.294;7.760;2023-11-19T03:58:02;22.00;;;7.80;;
30020;SDS011;16861;52.294;7.760;2023-11-19T04:00:29;24.33;;;8.57;;
30020;SDS011;16861;52.294;7.760;2023-11-19T04:02:55;18.98;;;8.07;;
30020;SDS011;16861;52.294;7.760;2023-11-19T04:05:22;17.15;;;7.07;;
30020;SDS011;16861;52.294;7.760;2023-11-19T04:07:49;13.38;;;6.93;;
30020;SDS011;16861;52.294;7.760;2023-11-19T04:10:15;24.52;;;7.22;;
30020;SDS011;16861;52.294;7.760;2023-11-19T04:12:43;24.25;;;7.90;;
30020;SDS011;16861;52.294;7.760;2023-11-19T04:15:10;18.73;;;6.90;;
30020;SDS011;16861;52.294;7.760;2023-11-19T04:17:38;27.13;;;7.78;;
30020;SDS011;16861;52.294;7.760;2023-11-19T04:20:05;21.73;;;7.47;;
30020;SDS011;16861;52.294;7.760;2023-11-19T04:22:32;19.30;;;6.90;;
30020;SDS011;16861;52.294;7.760;2023-11-19T04:24:59;17.20;;;6.97;;
30020;SDS011;16861;52.294;7.760;2023-11-19T04:27:25;21.63;;;5.97;;
30020;SDS011;16861;52.294;7.760;2023-11-19T04:29:52;21.70;;;6.00;;
30020;SDS011;16861;52.294;7.760;2023-11-19T04:32:20;25.15;;;6.95;;
30020;SDS011;16861;52.294;7.760;2023-11-19T04:34:47;18.10;;;5.75;;
30020;SDS011;16861;52.294;7.760;2023-11-19T04:37:13;24.50;;;5.13;;
30020;SDS011;16861;52.294;7.760;2023-11-19T04:39:40;19.58;;;5.53;;
30020;SDS011;16861;52.294;7.760;2023-11-19T04:42:07;22.65;;;5.38;;
30020;SDS011;16861;52.294;7.760;2023-11-19T04:44:33;22.92;;;5.55;;
30020;SDS011;16861;52.294;7.760;2023-11-19T04:47:00;21.38;;;5.57;;
30020;SDS011;16861;52.294;7.760;2023-11-19T04:49:27;28.33;;;5.88;;
30020;SDS011;16861;52.294;7.760;2023-11-19T04:51:54;22.35;;;5.32;;
30020;SDS011;16861;52.294;7.760;2023-11-19T04:54:20;24.02;;;6.22;;
30020;SDS011;16861;52.294;7.760;2023-11-19T04:56:50;19.17;;;5.03;;
30020;SDS011;16861;52.294;7.760;2023-11-19T04:59:17;18.10;;;5.47;;
30020;SDS011;16861;52.294;7.760;2023-11-19T05:01:47;21.45;;;5.05;;
30020;SDS011;16861;52.294;7.760;2023-11-19T05:04:14;20.38;;;5.25;;
30020;SDS011;16861;52.294;7.760;2023-11-19T05:06:41;24.38;;;5.40;;
30020;SDS011;16861;52.294;7.760;2023-11-19T05:09:08;19.90;;;4.60;;
30020;SDS011;16861;52.294;7.760;2023-11-19T05:11:35;25.17;;;5.35;;
30020;SDS011;16861;52.294;7.760;2023-11-19T05:14:02;29.38;;;5.55;;
30020;SDS011;16861;52.294;7.760;2023-11-19T05:16:32;22.60;;;6.25;;
30020;SDS011;16861;52.294;7.760;2023-11-19T05:18:59;33.13;;;6.57;;
30020;SDS011;16861;52.294;7.760;2023-11-19T05:21:26;28.77;;;6.28;;
30020;SDS011;16861;52.294;7.760;2023-11-19T05:23:52;26.73;;;5.68;;
30020;SDS011;16861;52.294;7.760;2023-11-19T05:26:19;21.40;;;4.80;;
30020;SDS011;16861;52.294;7.760;2023-11-19T05:28:47;31.05;;;6.35;;
30020;SDS011;16861;52.294;7.760;2023-11-19T05:31:15;31.30;;;5.72;;
30020;SDS011;16861;52.294;7.760;2023-11-19T05:33:43;28.20;;;5.97;;
30020;SDS011;16861;52.294;7.760;2023-11-19T05:36:10;28.15;;;5.93;;
30020;SDS011;16861;52.294;7.760;2023-11-19T05:38:38;26.23;;;5.05;;
30020;SDS011;16861;52.294;7.760;2023-11-19T05:41:05;28.67;;;5.90;;
30020;SDS011;16861;52.294;7.760;2023-11-19T05:43:33;26.40;;;5.45;;
30020;SDS011;16861;52.294;7.760;2023-11-19T05:46:00;29.75;;;5.60;;
30020;SDS011;16861;52.294;7.760;2023-11-19T05:48:28;31.33;;;7.00;;
30020;SDS011;16861;52.294;7.760;2023-11-19T05:50:55;33.83;;;6.85;;
30020;SDS011;16861;52.294;7.760;2023-11-19T05:53:21;30.83;;;6.22;;
30020;SDS011;16861;52.294;7.760;2023-11-19T05:55:48;27.92;;;5.75;;
30020;SDS011;16861;52.294;7.760;2023-11-19T05:58:24;28.48;;;6.00;;
30020;SDS011;16861;52.294;7.760;2023-11-19T06:03:29;27.05;;;5.97;;
30020;SDS011;16861;52.294;7.760;2023-11-19T06:05:55;38.78;;;6.88;;
30020;SDS011;16861;52.294;7.760;2023-11-19T06:08:22;38.35;;;6.25;;
30020;SDS011;16861;52.294;7.760;2023-11-19T06:10:48;38.58;;;7.22;;
30020;SDS011;16861;52.294;7.760;2023-11-19T06:13:17;37.17;;;6.40;;
30020;SDS011;16861;52.294;7.760;2023-11-19T06:15:44;35.22;;;6.90;;
30020;SDS011;16861;52.294;7.760;2023-11-19T06:18:10;34.05;;;6.93;;
30020;SDS011;16861;52.294;7.760;2023-11-19T06:20:38;30.27;;;5.35;;
30020;SDS011;16861;52.294;7.760;2023-11-19T06:23:08;31.58;;;6.80;;
30020;SDS011;16861;52.294;7.760;2023-11-19T06:25:39;32.45;;;6.75;;
30020;SDS011;16861;52.294;7.760;2023-11-19T06:28:05;33.85;;;6.15;;
30020;SDS011;16861;52.294;7.760;2023-11-19T06:30:32;35.20;;;6.03;;
30020;SDS011;16861;52.294;7.760;2023-11-19T06:32:59;37.83;;;6.10;;
30020;SDS011;16861;52.294;7.760;2023-11-19T06:35:27;38.53;;;6.13;;
30020;SDS011;16861;52.294;7.760;2023-11-19T06:38:05;37.90;;;6.80;;
30020;SDS011;16861;52.294;7.760;2023-11-19T06:40:35;43.65;;;6.57;;
30020;SDS011;16861;52.294;7.760;2023-11-19T06:43:02;35.03;;;6.28;;
30020;SDS011;16861;52.294;7.760;2023-11-19T06:45:30;36.75;;;6.95;;
30020;SDS011;16861;52.294;7.760;2023-11-19T06:47:57;40.50;;;6.65;;
30020;SDS011;16861;52.294;7.760;2023-11-19T06:50:26;33.78;;;6.05;;
30020;SDS011;16861;52.294;7.760;2023-11-19T06:52:53;38.08;;;6.90;;
30020;SDS011;16861;52.294;7.760;2023-11-19T06:55:20;27.52;;;5.60;;
30020;SDS011;16861;52.294;7.760;2023-11-19T06:57:46;37.85;;;7.18;;
30020;SDS011;16861;52.294;7.760;2023-11-19T07:00:19;34.80;;;5.63;;
30020;SDS011;16861;52.294;7.760;2023-11-19T07:02:48;42.63;;;6.47;;
30020;SDS011;16861;52.294;7.760;2023-11-19T07:07:50;44.20;;;7.18;;
30020;SDS011;16861;52.294;7.760;2023-11-19T07:10:28;44.42;;;7.60;;
30020;SDS011;16861;52.294;7.760;2023-11-19T07:12:56;43.28;;;6.50;;
30020;SDS011;16861;52.294;7.760;2023-11-19T07:15:25;39.72;;;6.35;;
30020;SDS011;16861;52.294;7.760;2023-11-19T07:17:52;41.20;;;5.65;;
30020;SDS011;16861;52.294;7.760;2023-11-19T07:20:26;33.20;;;6.32;;
30020;SDS011;16861;52.294;7.760;2023-11-19T07:22:56;45.15;;;7.03;;
30020;SDS011;16861;52.294;7.760;2023-11-19T07:25:24;36.55;;;7.60;;
30020;SDS011;16861;52.294;7.760;2023-11-19T07:27:51;38.05;;;6.28;;
30020;SDS011;16861;52.294;7.760;2023-11-19T07:30:20;38.75;;;6.28;;
30020;SDS011;16861;52.294;7.760;2023-11-19T07:35:25;35.22;;;7.38;;
30020;SDS011;16861;52.294;7.760;2023-11-19T07:37:52;33.60;;;6.80;;
30020;SDS011;16861;52.294;7.760;2023-11-19T07:40:19;30.17;;;5.80;;
30020;SDS011;16861;52.294;7.760;2023-11-19T07:42:46;38.30;;;6.75;;
30020;SDS011;16861;52.294;7.760;2023-11-19T07:45:12;42.25;;;6.82;;
30020;SDS011;16861;52.294;7.760;2023-11-19T07:47:39;32.78;;;6.97;;
30020;SDS011;16861;52.294;7.760;2023-11-19T07:50:06;39.95;;;6.28;;
30020;SDS011;16861;52.294;7.760;2023-11-19T07:52:33;37.95;;;6.60;;
30020;SDS011;16861;52.294;7.760;2023-11-19T07:55:00;37.05;;;7.10;;
30020;SDS011;16861;52.294;7.760;2023-11-19T07:57:27;36.95;;;6.28;;
30020;SDS011;16861;52.294;7.760;2023-11-19T07:59:57;41.28;;;7.68;;
30020;SDS011;16861;52.294;7.760;2023-11-19T08:02:24;30.15;;;5.97;;
30020;SDS011;16861;52.294;7.760;2023-11-19T08:04:50;27.42;;;6.43;;
30020;SDS011;16861;52.294;7.760;2023-11-19T08:07:18;42.53;;;7.00;;
30020;SDS011;16861;52.294;7.760;2023-11-19T08:09:48;39.20;;;6.38;;
30020;SDS011;16861;52.294;7.760;2023-11-19T08:12:14;37.97;;;7.07;;
30020;SDS011;16861;52.294;7.760;2023-11-19T08:14:43;38.03;;;5.85;;
30020;SDS011;16861;52.294;7.760;2023-11-19T08:17:10;40.20;;;6.50;;
30020;SDS011;16861;52.294;7.760;2023-11-19T08:19:37;37.38;;;6.15;;
30020;SDS011;16861;52.294;7.760;2023-11-19T08:22:03;38.67;;;6.47;;
30020;SDS011;16861;52.294;7.760;2023-11-19T08:24:30;38.45;;;6.47;;
30020;SDS011;16861;52.294;7.760;2023-11-19T08:26:56;46.33;;;7.55;;
30020;SDS011;16861;52.294;7.760;2023-11-19T08:29:26;41.80;;;5.82;;
30020;SDS011;16861;52.294;7.760;2023-11-19T08:31:53;36.15;;;5.45;;
30020;SDS011;16861;52.294;7.760;2023-11-19T08:34:20;38.60;;;6.22;;
30020;SDS011;16861;52.294;7.760;2023-11-19T08:36:49;33.75;;;6.35;;
30020;SDS011;16861;52.294;7.760;2023-11-19T08:39:16;41.17;;;6.35;;
30020;SDS011;16861;52.294;7.760;2023-11-19T08:41:43;37.90;;;6.50;;
30020;SDS011;16861;52.294;7.760;2023-11-19T08:44:12;34.83;;;5.72;;
30020;SDS011;16861;52.294;7.760;2023-11-19T08:46:39;43.65;;;7.68;;
30020;SDS011;16861;52.294;7.760;2023-11-19T08:49:06;35.72;;;6.25;;
30020;SDS011;16861;52.294;7.760;2023-11-19T08:51:34;39.20;;;8.32;;
30020;SDS011;16861;52.294;7.760;2023-11-19T08:54:01;33.85;;;5.50;;
30020;SDS011;16861;52.294;7.760;2023-11-19T09:00:10;42.67;;;7.18;;
30020;SDS011;16861;52.294;7.760;2023-11-19T09:02:37;39.40;;;6.13;;
30020;SDS011;16861;52.294;7.760;2023-11-19T09:05:04;29.95;;;5.82;;
30020;SDS011;16861;52.294;7.760;2023-11-19T09:07:31;36.20;;;6.40;;
30020;SDS011;16861;52.294;7.760;2023-11-19T09:09:58;29.60;;;5.85;;
30020;SDS011;16861;52.294;7.760;2023-11-19T09:12:25;29.45;;;5.75;;
30020;SDS011;16861;52.294;7.760;2023-11-19T09:15:03;40.08;;;6.43;;
30020;SDS011;16861;52.294;7.760;2023-11-19T09:17:37;44.83;;;7.57;;
30020;SDS011;16861;52.294;7.760;2023-11-19T09:20:04;36.08;;;6.55;;
30020;SDS011;16861;52.294;7.760;2023-11-19T09:22:31;43.78;;;7.45;;
30020;SDS011;16861;52.294;7.760;2023-11-19T09:24:58;46.35;;;8.07;;
30020;SDS011;16861;52.294;7.760;2023-11-19T09:27:26;37.45;;;7.05;;
30020;SDS011;16861;52.294;7.760;2023-11-19T09:29:54;51.55;;;7.97;;
30020;SDS011;16861;52.294;7.760;2023-11-19T09:32:24;37.20;;;7.43;;
30020;SDS011;16861;52.294;7.760;2023-11-19T09:34:53;33.63;;;6.55;;
30020;SDS011;16861;52.294;7.760;2023-11-19T09:37:21;49.40;;;7.38;;
30020;SDS011;16861;52.294;7.760;2023-11-19T09:39:51;46.00;;;7.90;;
30020;SDS011;16861;52.294;7.760;2023-11-19T09:42:21;39.67;;;7.10;;
30020;SDS011;16861;52.294;7.760;2023-11-19T09:45:04;36.22;;;6.50;;
30020;SDS011;16861;52.294;7.760;2023-11-19T09:47:45;40.80;;;7.25;;
30020;SDS011;16861;52.294;7.760;2023-11-19T09:50:18;40.72;;;6.32;;
30020;SDS011;16861;52.294;7.760;2023-11-19T09:55:44;40.10;;;7.25;;
30020;SDS011;16861;52.294;7.760;2023-11-19T09:58:12;38.80;;;6.20;;
30020;SDS011;16861;52.294;7.760;2023-11-19T10:00:47;39.95;;;7.10;;
30020;SDS011;16861;52.294;7.760;2023-11-19T10:03:36;39.65;;;7.07;;
30020;SDS011;16861;52.294;7.760;2023-11-19T10:06:17;45.03;;;7.07;;
30020;SDS011;16861;52.294;7.760;2023-11-19T10:08:56;37.47;;;8.00;;
30020;SDS011;16861;52.294;7.760;2023-11-19T10:11:35;42.90;;;7.82;;
30020;SDS011;16861;52.294;7.760;2023-11-19T10:14:32;41.17;;;6.10;;
30020;SDS011;16861;52.294;7.760;2023-11-19T10:17:07;37.97;;;5.95;;
30020;SDS011;16861;52.294;7.760;2023-11-19T10:19:41;36.20;;;6.25;;
30020;SDS011;16861;52.294;7.760;2023-11-19T10:22:11;36.80;;;6.45;;
30020;SDS011;16861;52.294;7.760;2023-11-19T10:24:39;34.60;;;6.80;;
30020;SDS011;16861;52.294;7.760;2023-11-19T10:27:24;31.45;;;6.05;;
30020;SDS011;16861;52.294;7.760;2023-11-19T10:29:52;39.60;;;7.22;;
30020;SDS011;16861;52.294;7.760;2023-11-19T10:32:22;44.45;;;7.22;;
30020;SDS011;16861;52.294;7.760;2023-11-19T10:35:03;30.73;;;6.63;;
30020;SDS011;16861;52.294;7.760;2023-11-19T10:37:38;35.03;;;6.78;;
30020;SDS011;16861;52.294;7.760;2023-11-19T10:40:05;33.70;;;6.20;;
30020;SDS011;16861;52.294;7.760;2023-11-19T10:42:32;31.60;;;6.45;;
30020;SDS011;16861;52.294;7.760;2023-11-19T10:44:59;30.65;;;5.50;;
30020;SDS011;16861;52.294;7.760;2023-11-19T10:47:28;34.85;;;6.03;;
30020;SDS011;16861;52.294;7.760;2023-11-19T10:49:59;42.83;;;7.28;;
30020;SDS011;16861;52.294;7.760;2023-11-19T10:52:26;33.10;;;6.53;;
30020;SDS011;16861;52.294;7.760;2023-11-19T11:00:20;42.63;;;6.72;;
30020;SDS011;16861;52.294;7.760;2023-11-19T11:02:50;32.90;;;6.70;;
30020;SDS011;16861;52.294;7.760;2023-11-19T11:05:22;41.20;;;5.90;;
30020;SDS011;16861;52.294;7.760;2023-11-19T11:07:50;35.15;;;7.32;;
30020;SDS011;16861;52.294;7.760;2023-11-19T11:10:18;38.08;;;5.63;;
30020;SDS011;16861;52.294;7.760;2023-11-19T11:12:48;40.70;;;6.90;;
30020;SDS011;16861;52.294;7.760;2023-11-19T11:15:19;36.33;;;5.88;;
30020;SDS011;16861;52.294;7.760;2023-11-19T11:17:46;35.85;;;5.57;;
30020;SDS011;16861;52.294;7.760;2023-11-19T11:20:14;38.85;;;7.68;;
30020;SDS011;16861;52.294;7.760;2023-11-19T11:22:53;35.78;;;6.32;;
30020;SDS011;16861;52.294;7.760;2023-11-19T11:25:34;37.10;;;6.72;;
30020;SDS011;16861;52.294;7.760;2023-11-19T11:28:15;36.33;;;7.07;;
30020;SDS011;16861;52.294;7.760;2023-11-19T11:33:34;39.70;;;6.60;;
30020;SDS011;16861;52.294;7.760;2023-11-19T11:38:40;40.63;;;7.03;;
30020;SDS011;16861;52.294;7.760;2023-11-19T11:41:23;41.10;;;6.95;;
30020;SDS011;16861;52.294;7.760;2023-11-19T11:43:55;32.05;;;5.95;;
30020;SDS011;16861;52.294;7.760;2023-11-19T11:49:07;31.73;;;6.70;;
30020;SDS011;16861;52.294;7.760;2023-11-19T12:02:10;38.22;;;5.93;;
30020;SDS011;16861;52.294;7.760;2023-11-19T12:04:41;37.78;;;6.82;;
30020;SDS011;16861;52.294;7.760;2023-11-19T12:07:13;31.23;;;5.97;;
30020;SDS011;16861;52.294;7.760;2023-11-19T12:09:42;30.85;;;6.00;;
30020;SDS011;16861;52.294;7.760;2023-11-19T12:12:23;38.45;;;7.45;;
30020;SDS011;16861;52.294;7.760;2023-11-19T12:17:37;26.25;;;5.40;;
30020;SDS011;16861;52.294;7.760;2023-11-19T12:20:11;35.72;;;5.88;;
30020;SDS011;16861;52.294;7.760;2023-11-19T12:22:38;37.05;;;6.93;;
30020;SDS011;16861;52.294;7.760;2023-11-19T12:25:06;39.63;;;6.10;;
30020;SDS011;16861;52.294;7.760;2023-11-19T12:27:35;36.50;;;6.80;;
30020;SDS011;16861;52.294;7.760;2023-11-19T12:35:14;29.27;;;5.95;;
30020;SDS011;16861;52.294;7.760;2023-11-19T12:37:41;37.22;;;7.15;;
30020;SDS011;16861;52.294;7.760;2023-11-19T12:40:15;37.17;;;5.75;;
30020;SDS011;16861;52.294;7.760;2023-11-19T12:42:50;35.47;;;6.03;;
30020;SDS011;16861;52.294;7.760;2023-11-19T12:45:18;26.40;;;5.55;;
30020;SDS011;16861;52.294;7.760;2023-11-19T12:47:47;23.45;;;5.43;;
30020;SDS011;16861;52.294;7.760;2023-11-19T12:50:15;37.22;;;6.15;;
30020;SDS011;16861;52.294;7.760;2023-11-19T12:52:55;34.90;;;6.15;;
30020;SDS011;16861;52.294;7.760;2023-11-19T12:55:26;35.60;;;6.07;;
30020;SDS011;16861;52.294;7.760;2023-11-19T12:57:57;35.67;;;7.00;;
30020;SDS011;16861;52.294;7.760;2023-11-19T13:00:25;28.73;;;6.13;;
30020;SDS011;16861;52.294;7.760;2023-11-19T13:02:53;37.45;;;6.75;;
30020;SDS011;16861;52.294;7.760;2023-11-19T13:05:32;35.97;;;6.25;;
30020;SDS011;16861;52.294;7.760;2023-11-19T13:08:00;30.92;;;6.15;;
30020;SDS011;16861;52.294;7.760;2023-11-19T13:10:31;38.30;;;6.10;;
30020;SDS011;16861;52.294;7.760;2023-11-19T13:13:17;32.88;;;6.07;;
30020;SDS011;16861;52.294;7.760;2023-11-19T13:15:43;32.10;;;5.68;;
30020;SDS011;16861;52.294;7.760;2023-11-19T13:18:15;30.27;;;6.10;;
30020;SDS011;16861;52.294;7.760;2023-11-19T13:20:43;28.10;;;5.22;;
30020;SDS011;16861;52.294;7.760;2023-11-19T13:23:09;28.27;;;5.57;;
30020;SDS011;16861;52.294;7.760;2023-11-19T13:25:42;23.98;;;4.80;;
30020;SDS011;16861;52.294;7.760;2023-11-19T13:28:09;33.33;;;6.13;;
30020;SDS011;16861;52.294;7.760;2023-11-19T13:30:36;30.17;;;5.80;;
30020;SDS011;16861;52.294;7.760;2023-11-19T13:33:03;29.55;;;5.65;;
30020;SDS011;16861;52.294;7.760;2023-11-19T13:35:29;24.50;;;5.47;;
30020;SDS011;16861;52.294;7.760;2023-11-19T13:37:56;28.23;;;5.80;;
30020;SDS011;16861;52.294;7.760;2023-11-19T13:40:22;33.30;;;6.15;;
30020;SDS011;16861;52.294;7.760;2023-11-19T13:42:51;31.50;;;5.25;;
30020;SDS011;16861;52.294;7.760;2023-11-19T13:45:17;29.50;;;5.63;;
30020;SDS011;16861;52.294;7.760;2023-11-19T13:47:46;26.08;;;5.18;;
30020;SDS011;16861;52.294;7.760;2023-11-19T13:50:13;27.30;;;5.68;;
30020;SDS011;16861;52.294;7.760;2023-11-19T13:52:42;29.17;;;5.47;;
30020;SDS011;16861;52.294;7.760;2023-11-19T13:55:11;31.73;;;6.38;;
30020;SDS011;16861;52.294;7.760;2023-11-19T13:57:38;26.90;;;5.40;;
30020;SDS011;16861;52.294;7.760;2023-11-19T14:00:06;31.42;;;5.75;;
30020;SDS011;16861;52.294;7.760;2023-11-19T14:02:43;24.90;;;4.80;;
30020;SDS011;16861;52.294;7.760;2023-11-19T14:05:09;29.35;;;5.32;;
30020;SDS011;16861;52.294;7.760;2023-11-19T14:10:07;30.13;;;7.03;;
30020;SDS011;16861;52.294;7.760;2023-11-19T14:12:37;28.10;;;5.78;;
30020;SDS011;16861;52.294;7.760;2023-11-19T14:15:03;32.95;;;5.78;;
30020;SDS011;16861;52.294;7.760;2023-11-19T14:17:32;28.50;;;4.90;;
30020;SDS011;16861;52.294;7.760;2023-11-19T14:20:00;23.70;;;4.75;;
30020;SDS011;16861;52.294;7.760;2023-11-19T14:22:27;27.05;;;4.97;;
30020;SDS011;16861;52.294;7.760;2023-11-19T14:24:54;29.50;;;4.82;;
30020;SDS011;16861;52.294;7.760;2023-11-19T14:27:24;25.85;;;5.50;;
30020;SDS011;16861;52.294;7.760;2023-11-19T14:29:51;23.40;;;4.63;;
30020;SDS011;16861;52.294;7.760;2023-11-19T14:32:18;28.08;;;5.35;;
30020;SDS011;16861;52.294;7.760;2023-11-19T14:34:44;27.95;;;5.13;;
30020;SDS011;16861;52.294;7.760;2023-11-19T14:37:11;24.80;;;4.90;;
30020;SDS011;16861;52.294;7.760;2023-11-19T14:39:38;22.58;;;5.05;;
30020;SDS011;16861;52.294;7.760;2023-11-19T14:42:04;23.25;;;4.15;;
30020;SDS011;16861;52.294;7.760;2023-11-19T14:44:31;23.35;;;4.97;;
30020;SDS011;16861;52.294;7.760;2023-11-19T14:46:58;24.88;;;5.25;;
30020;SDS011;16861;52.294;7.760;2023-11-19T14:49:25;28.75;;;4.32;;
30020;SDS011;16861;52.294;7.760;2023-11-19T14:51:53;31.15;;;5.15;;
30020;SDS011;16861;52.294;7.760;2023-11-19T14:54:19;26.15;;;4.55;;
30020;SDS011;16861;52.294;7.760;2023-11-19T14:56:46;25.45;;;5.03;;
30020;SDS011;16861;52.294;7.760;2023-11-19T14:59:13;29.83;;;5.50;;
30020;SDS011;16861;52.294;7.760;2023-11-19T15:01:39;23.92;;;4.97;;
30020;SDS011;16861;52.294;7.760;2023-11-19T15:04:06;28.77;;;4.90;;
30020;SDS011;16861;52.294;7.760;2023-11-19T15:06:33;21.63;;;4.95;;
30020;SDS011;16861;52.294;7.760;2023-11-19T15:09:00;27.63;;;4.45;;
30020;SDS011;16861;52.294;7.760;2023-11-19T15:11:27;23.02;;;4.50;;
30020;SDS011;16861;52.294;7.760;2023-11-19T15:13:54;25.00;;;4.53;;
30020;SDS011;16861;52.294;7.760;2023-11-19T15:16:20;24.98;;;4.63;;
30020;SDS011;16861;52.294;7.760;2023-11-19T15:18:57;19.55;;;3.65;;
30020;SDS011;16861;52.294;7.760;2023-11-19T15:21:29;27.70;;;4.47;;
30020;SDS011;16861;52.294;7.760;2023-11-19T15:23:56;20.13;;;4.68;;
30020;SDS011;16861;52.294;7.760;2023-11-19T15:26:22;23.92;;;4.53;;
30020;SDS011;16861;52.294;7.760;2023-11-19T15:28:49;26.42;;;5.13;;
30020;SDS011;16861;52.294;7.760;2023-11-19T15:31:16;22.92;;;4.03;;
30020;SDS011;16861;52.294;7.760;2023-11-19T15:33:42;24.25;;;4.38;;
30020;SDS011;16861;52.294;7.760;2023-11-19T15:36:11;21.60;;;5.32;;